Time;durP1;ratioP1;P1;durP2;ratioP2;P2;SDS_P1;SDS_P2;PMS_P1;PMS_P2;Temp;Humidity;BMP_temperature;BMP_pressure;BME280_temperature;BME280_humidity;BME280_pressure;Samples;Min_cycle;Max_cycle;Signal;HPM_P1;HPM_P2
2023/06/09 00:02:18;;;;;;;;;;;;;;;16.24;76.83;97764.16;5062928;28;19946;-58
2023/06/09 00:04:46;;;;;;;;;;;;;;;16.33;76.16;97761.22;5094346;28;19928;-58
2023/06/09 00:07:15;;;;;;;;;;;;;;;16.23;76.47;97761.75;5098880;28;20437;-57
2023/06/09 00:09:45;;;;;;;;;;;;;;;16.27;77.15;97756.38;5092458;28;19932;-58
2023/06/09 00:12:13;;;;;;;;;;;;;;;16.09;76.41;97756.69;5100435;28;20018;-58
2023/06/09 00:14:41;;;;;;;;;;;;;;;16.13;76.77;97754.84;5094255;28;19973;-58
2023/06/09 00:17:09;;;;;;;;;;;;;;;16.09;75.49;97759.44;5090990;28;19919;-58
2023/06/09 00:19:37;;;;;;;;;;;;;;;16.16;74.67;97756.88;5093026;28;20615;-58
2023/06/09 00:22:06;;;;;;;;;;;;;;;16.14;74.84;97753.72;5097638;28;19920;-59
2023/06/09 00:24:33;;;;;;;;;;;;;;;16.12;74.68;97749.72;5097346;28;19920;-63
2023/06/09 00:27:02;;;;;;;;;;;;;;;16.15;74.53;97755.28;5103218;28;19928;-57
2023/06/09 00:29:30;;;;;;;;;;;;;;;16.13;74.51;97756.78;5100433;28;19920;-58
2023/06/09 00:31:58;;;;;;;;;;;;;;;16.15;74.60;97755.28;5115566;27;20014;-57
2023/06/09 00:34:26;;;;;;;;;;;;;;;16.20;74.06;97757.78;5073155;28;19924;-58
2023/06/09 00:36:53;;;;;;;;;;;;;;;16.18;74.18;97754.56;5093388;28;20354;-58
2023/06/09 00:39:22;;;;;;;;;;;;;;;16.19;73.62;97752.63;5098223;28;19958;-58
2023/06/09 00:41:50;;;;;;;;;;;;;;;16.18;73.33;97754.56;5082745;28;20318;-63
2023/06/09 00:44:19;;;;;;;;;;;;;;;16.13;73.61;97756.78;5084236;28;19920;-58
2023/06/09 00:46:47;;;;;;;;;;;;;;;16.12;72.85;97752.44;5080612;28;20299;-58
2023/06/09 00:49:15;;;;;;;;;;;;;;;16.06;72.95;97757.38;5101664;28;19955;-57
2023/06/09 00:51:42;;;;;;;;;;;;;;;16.01;73.39;97763.13;5113533;27;19920;-57
2023/06/09 00:54:10;;;;;;;;;;;;;;;15.91;73.21;97755.41;5074916;28;19956;-58
2023/06/09 00:56:39;;;;;;;;;;;;;;;15.91;73.89;97755.41;5083893;28;20354;-58
2023/06/09 00:59:09;;;;;;;;;;;;;;;15.95;74.03;97762.59;5100483;28;19967;-57
2023/06/09 01:01:38;;;;;;;;;;;;;;;15.91;74.12;97758.94;5078579;28;20276;-58
2023/06/09 01:04:08;;;;;;;;;;;;;;;15.91;74.13;97752.66;5084037;28;19951;-58
2023/06/09 01:06:39;;;;;;;;;;;;;;;15.87;74.47;97758.06;5076729;28;19964;-58
2023/06/09 01:09:10;;;;;;;;;;;;;;;15.93;74.62;97753.13;5112058;27;19920;-63
2023/06/09 01:11:40;;;;;;;;;;;;;;;15.88;74.69;97756.91;5078887;28;19920;-61
2023/06/09 01:14:10;;;;;;;;;;;;;;;15.94;74.78;97749.25;5081197;28;19985;-58
2023/06/09 01:16:41;;;;;;;;;;;;;;;15.99;74.23;97751.72;5059539;28;20016;-60
2023/06/09 01:19:11;;;;;;;;;;;;;;;15.93;73.90;97753.94;5079551;28;19963;-58
2023/06/09 01:21:43;;;;;;;;;;;;;;;15.88;73.97;97751.44;5070939;28;20003;-57
2023/06/09 01:24:15;;;;;;;;;;;;;;;15.93;74.13;97750.41;5075214;28;19968;-58
2023/06/09 01:26:44;;;;;;;;;;;;;;;15.98;74.23;97748.19;5080726;28;19960;-58
2023/06/09 01:29:14;;;;;;;;;;;;;;;15.94;73.94;97754.72;5072512;28;20020;-57
2023/06/09 01:31:41;;;;;;;;;;;;;;;15.93;74.10;97755.88;5069185;28;20007;-59
2023/06/09 01:34:09;;;;;;;;;;;;;;;15.92;74.03;97751.53;5074009;28;19936;-58
2023/06/09 01:36:37;;;;;;;;;;;;;;;15.83;74.73;97750.91;5081459;28;19920;-58
2023/06/09 01:39:06;;;;;;;;;;;;;;;15.92;74.81;97754.25;5078490;28;19921;-58
2023/06/09 01:41:33;;;;;;;;;;;;;;;15.83;74.81;97756.38;5080159;28;19974;-58
2023/06/09 01:44:03;;;;;;;;;;;;;;;15.81;74.85;97755.91;5068063;28;19921;-57
2023/06/09 01:46:31;;;;;;;;;;;;;;;15.83;74.82;97748.94;5080285;28;19952;-59
2023/06/09 01:49:02;;;;;;;;;;;;;;;15.89;74.44;97752.22;5067854;28;19927;-58
2023/06/09 01:51:32;;;;;;;;;;;;;;;15.81;74.48;97758.66;5073089;28;19978;-58
2023/06/09 01:54:00;;;;;;;;;;;;;;;15.76;74.96;97759.69;5075502;28;19952;-58
2023/06/09 01:56:29;;;;;;;;;;;;;;;15.76;74.70;97759.69;5070912;28;19932;-61
2023/06/09 01:58:58;;;;;;;;;;;;;;;15.76;74.68;97756.16;5080563;28;19930;-58
2023/06/09 02:01:51;;;;;;;;;;;;;;;15.70;74.35;97758.34;5072921;28;19924;-59
2023/06/09 02:04:24;;;;;;;;;;;;;;;15.71;74.63;97758.03;5104232;27;19935;-63
2023/06/09 02:06:52;;;;;;;;;;;;;;;15.71;74.74;97758.03;5067624;28;19921;-58
2023/06/09 02:09:20;;;;;;;;;;;;;;;15.71;74.62;97758.03;5046182;28;19971;-58
2023/06/09 02:11:50;;;;;;;;;;;;;;;15.71;74.43;97751.72;5039340;28;19941;-58
2023/06/09 02:14:18;;;;;;;;;;;;;;;15.73;75.20;97754.94;5068347;28;19928;-58
2023/06/09 02:16:47;;;;;;;;;;;;;;;15.65;75.09;97762.13;5024708;28;20590;-57
2023/06/09 02:19:15;;;;;;;;;;;;;;;15.60;75.41;97754.13;5023024;28;19922;-59
2023/06/09 02:21:44;;;;;;;;;;;;;;;15.71;74.99;97746.25;5052229;28;20318;-59
2023/06/09 02:24:12;;;;;;;;;;;;;;;15.67;74.95;97743.44;5054166;28;19930;-58
2023/06/09 02:26:40;;;;;;;;;;;;;;;15.64;74.83;97741.38;5057537;28;19928;-57
2023/06/09 02:29:08;;;;;;;;;;;;;;;15.65;75.66;97745.69;5055340;28;21937;-57
2023/06/09 02:31:36;;;;;;;;;;;;;;;15.59;75.18;97749.81;5046853;28;20325;-58
2023/06/09 02:34:04;;;;;;;;;;;;;;;15.56;75.43;97750.53;5055376;28;20325;-58
2023/06/09 02:36:32;;;;;;;;;;;;;;;15.53;75.43;97747.66;5058503;28;20019;-58
2023/06/09 02:39:01;;;;;;;;;;;;;;;15.61;75.21;97742.06;5020295;28;19956;-60
2023/06/09 02:41:30;;;;;;;;;;;;;;;15.59;74.73;97738.06;5046438;28;19929;-57
2023/06/09 02:44:02;;;;;;;;;;;;;;;15.55;75.37;97732.47;5052107;28;19921;-57
2023/06/09 02:46:30;;;;;;;;;;;;;;;15.66;74.51;97738.31;5040279;28;19929;-58
2023/06/09 02:49:03;;;;;;;;;;;;;;;15.62;75.48;97748.31;5050707;28;19921;-57
2023/06/09 02:51:32;;;;;;;;;;;;;;;15.63;75.92;97749.94;5051507;28;19928;-59
2023/06/09 02:54:02;;;;;;;;;;;;;;;15.57;76.56;97746.63;5026179;28;19948;-57
2023/06/09 02:56:31;;;;;;;;;;;;;;;15.58;75.83;97750.94;5055100;28;19943;-57
2023/06/09 02:58:58;;;;;;;;;;;;;;;15.55;75.83;97754.38;5046356;28;19953;-58
2023/06/09 03:01:28;;;;;;;;;;;;;;;15.68;75.65;97755.97;5021196;28;19925;-57
2023/06/09 03:03:57;;;;;;;;;;;;;;;15.73;75.30;97751.41;5029523;28;20332;-58
2023/06/09 03:06:27;;;;;;;;;;;;;;;15.70;74.63;97756.41;5042685;28;19933;-59
2023/06/09 03:08:55;;;;;;;;;;;;;;;15.61;75.02;97758.50;5053848;28;19956;-65
2023/06/09 03:11:25;;;;;;;;;;;;;;;15.63;74.58;97760.91;5047562;28;19921;-61
2023/06/09 03:13:53;;;;;;;;;;;;;;;15.59;75.32;97754.50;5083458;28;20270;-58
2023/06/09 03:16:21;;;;;;;;;;;;;;;15.59;75.27;97770.91;5043579;28;20388;-58
2023/06/09 03:18:51;;;;;;;;;;;;;;;15.52;75.04;97767.97;5060753;28;21051;-61
2023/06/09 03:21:23;;;;;;;;;;;;;;;15.51;75.39;97761.72;5056430;28;19929;-60
2023/06/09 03:23:52;;;;;;;;;;;;;;;15.49;76.13;97761.25;5063030;28;19956;-58
2023/06/09 03:26:20;;;;;;;;;;;;;;;15.51;75.58;97764.44;5056558;28;19926;-60
2023/06/09 03:28:49;;;;;;;;;;;;;;;15.61;75.57;97763.97;5045942;28;20673;-63
2023/06/09 03:31:17;;;;;;;;;;;;;;;15.54;75.45;97774.69;5053988;28;19942;-58
2023/06/09 03:33:47;;;;;;;;;;;;;;;15.50;76.10;97770.25;5055460;28;20041;-58
2023/06/09 03:36:16;;;;;;;;;;;;;;;15.58;76.32;97780.28;5053588;28;20403;-57
2023/06/09 03:38:44;;;;;;;;;;;;;;;15.49;76.56;97777.66;5088997;28;19944;-58
2023/06/09 03:41:12;;;;;;;;;;;;;;;15.51;76.64;97786.34;5060124;28;19934;-61
2023/06/09 03:43:41;;;;;;;;;;;;;;;15.53;76.40;97788.75;5058984;28;20465;-58
2023/06/09 03:46:10;;;;;;;;;;;;;;;15.46;75.65;97784.66;5053058;28;19920;-58
2023/06/09 03:48:38;;;;;;;;;;;;;;;15.38;76.17;97776.56;5053667;28;20381;-57
2023/06/09 03:51:06;;;;;;;;;;;;;;;15.38;76.53;97785.56;5050864;28;20340;-58
2023/06/09 03:53:33;;;;;;;;;;;;;;;15.40;76.40;97790.72;5085693;28;19977;-59
2023/06/09 03:56:01;;;;;;;;;;;;;;;15.38;76.36;97793.00;5053584;28;19928;-59
2023/06/09 03:58:30;;;;;;;;;;;;;;;15.42;76.20;97796.63;5091813;28;19924;-58
2023/06/09 04:00:57;;;;;;;;;;;;;;;15.25;76.78;97789.50;5044298;28;19988;-58
2023/06/09 04:03:28;;;;;;;;;;;;;;;15.26;77.03;97801.22;5052190;28;19944;-58
2023/06/09 04:05:57;;;;;;;;;;;;;;;15.35;76.74;97799.16;5073236;28;20324;-59
2023/06/09 04:08:26;;;;;;;;;;;;;;;15.26;76.86;97796.53;5050294;28;19925;-58
2023/06/09 04:10:54;;;;;;;;;;;;;;;15.25;76.43;97794.16;5092731;28;19951;-57
2023/06/09 04:13:23;;;;;;;;;;;;;;;15.12;76.96;97796.09;5057745;28;20007;-57
2023/06/09 04:15:51;;;;;;;;;;;;;;;15.15;77.01;97790.75;5049002;28;20370;-59
2023/06/09 04:18:20;;;;;;;;;;;;;;;15.12;77.00;97793.38;5051597;28;19928;-58
2023/06/09 04:20:50;;;;;;;;;;;;;;;15.20;77.31;97792.47;5052436;28;19924;-58
2023/06/09 04:23:17;;;;;;;;;;;;;;;15.29;76.99;97795.88;5058520;28;19951;-57
2023/06/09 04:25:46;;;;;;;;;;;;;;;15.39;76.63;97800.06;5051358;28;19921;-58
2023/06/09 04:28:17;;;;;;;;;;;;;;;15.24;76.99;97803.53;5054131;28;19925;-58
2023/06/09 04:30:48;;;;;;;;;;;;;;;15.32;76.91;97806.13;5082554;28;19921;-63
2023/06/09 04:33:18;;;;;;;;;;;;;;;15.35;76.53;97805.44;5082758;28;19974;-57
2023/06/09 04:35:53;;;;;;;;;;;;;;;15.33;77.30;97810.44;5076939;28;19975;-58
2023/06/09 04:38:24;;;;;;;;;;;;;;;15.36;77.83;97812.50;5050276;28;19966;-58
2023/06/09 04:40:52;;;;;;;;;;;;;;;15.39;77.46;97816.47;5063492;28;20016;-58
2023/06/09 04:43:27;;;;;;;;;;;;;;;15.38;77.99;97817.63;5049216;28;19979;-59
2023/06/09 04:45:59;;;;;;;;;;;;;;;15.34;77.63;97808.50;5052631;28;19920;-58
2023/06/09 04:48:29;;;;;;;;;;;;;;;15.45;77.80;97815.91;5075371;28;20421;-58
2023/06/09 04:51:01;;;;;;;;;;;;;;;15.53;77.99;97805.97;5078855;28;20276;-57
2023/06/09 04:53:34;;;;;;;;;;;;;;;15.53;77.82;97808.69;5082245;28;19921;-57
2023/06/09 04:56:06;;;;;;;;;;;;;;;15.63;76.72;97808.25;5046716;28;19920;-58
2023/06/09 04:58:38;;;;;;;;;;;;;;;15.60;77.29;97808.91;5056369;28;19925;-59
2023/06/09 05:01:06;;;;;;;;;;;;;;;15.76;76.42;97802.72;5045944;28;20280;-58
2023/06/09 05:03:34;;;;;;;;;;;;;;;15.76;76.25;97813.69;5059690;28;19932;-58
2023/06/09 05:06:03;;;;;;;;;;;;;;;15.73;76.36;97808.91;5055292;28;19928;-58
2023/06/09 05:08:33;;;;;;;;;;;;;;;15.82;75.77;97804.06;5036411;28;19921;-58
2023/06/09 05:11:03;;;;;;;;;;;;;;;15.85;75.66;97817.09;5036215;28;20019;-58
2023/06/09 05:13:31;;;;;;;;;;;;;;;15.85;76.87;97811.59;5024731;28;19921;-59
2023/06/09 05:15:59;;;;;;;;;;;;;;;15.64;76.77;97811.78;5055903;28;19925;-57
2023/06/09 05:18:29;;;;;;;;;;;;;;;15.73;75.89;97817.13;5077365;28;19943;-59
2023/06/09 05:20:57;;;;;;;;;;;;;;;15.88;75.83;97810.91;5064488;28;20024;-58
2023/06/09 05:23:26;;;;;;;;;;;;;;;15.79;76.09;97819.28;5043583;28;19929;-60
2023/06/09 05:25:54;;;;;;;;;;;;;;;15.85;76.05;97808.88;5049617;28;19939;-66
2023/06/09 05:28:22;;;;;;;;;;;;;;;16.05;75.31;97810.59;5047286;28;19920;-57
2023/06/09 05:30:51;;;;;;;;;;;;;;;16.08;75.22;97820.84;5072470;28;20378;-58
2023/06/09 05:33:20;;;;;;;;;;;;;;;16.05;74.61;97818.84;5070839;28;19925;-58
2023/06/09 05:35:49;;;;;;;;;;;;;;;16.06;75.30;97823.16;5071828;28;20359;-57
2023/06/09 05:38:18;;;;;;;;;;;;;;;16.12;75.26;97820.97;5082664;28;19921;-60
2023/06/09 05:40:49;;;;;;;;;;;;;;;16.14;74.79;97824.97;5036784;28;20019;-59
2023/06/09 05:43:17;;;;;;;;;;;;;;;15.99;75.17;97828.44;5076262;28;19921;-58
2023/06/09 05:45:47;;;;;;;;;;;;;;;16.12;74.33;97820.97;5034704;28;19928;-58
2023/06/09 05:48:15;;;;;;;;;;;;;;;16.06;74.33;97817.69;5066912;28;19925;-57
2023/06/09 05:50:43;;;;;;;;;;;;;;;16.06;73.79;97830.59;5040566;28;19925;-58
2023/06/09 05:53:11;;;;;;;;;;;;;;;16.04;73.47;97828.19;5040958;28;20429;-59
2023/06/09 05:55:40;;;;;;;;;;;;;;;16.03;74.69;97831.28;5038050;28;19921;-59
2023/06/09 05:58:11;;;;;;;;;;;;;;;16.12;75.03;97823.69;5037095;28;19925;-58
2023/06/09 06:00:39;;;;;;;;;;;;;;;16.08;75.03;97829.06;5070355;28;19944;-57
2023/06/09 06:03:10;;;;;;;;;;;;;;;16.24;74.11;97835.44;5039301;28;19928;-60
2023/06/09 06:05:38;;;;;;;;;;;;;;;16.36;74.28;97822.81;5054648;28;19927;-57
2023/06/09 06:08:06;;;;;;;;;;;;;;;16.50;74.56;97829.44;5098224;27;19982;-57
2023/06/09 06:10:34;;;;;;;;;;;;;;;16.64;74.32;97837.25;5083351;28;20987;-57
2023/06/09 06:13:03;;;;;;;;;;;;;;;16.74;73.42;97827.72;5076632;28;19963;-59
2023/06/09 06:15:33;;;;;;;;;;;;;;;16.79;71.66;97826.69;5072411;28;19920;-57
2023/06/09 06:18:01;;;;;;;;;;;;;;;16.80;70.26;97831.00;5091066;28;19936;-58
2023/06/09 06:20:28;;;;;;;;;;;;;;;16.93;71.27;97829.75;5075649;28;19935;-57
2023/06/09 06:22:57;;;;;;;;;;;;;;;17.01;70.84;97826.03;5087528;28;19920;-58
2023/06/09 06:25:25;;;;;;;;;;;;;;;17.14;69.39;97822.03;5094210;28;19933;-63
2023/06/09 06:27:52;;;;;;;;;;;;;;;17.30;69.48;97824.75;5089874;28;20007;-58
2023/06/09 06:30:21;;;;;;;;;;;;;;;17.26;69.07;97824.69;5070086;28;20383;-60
2023/06/09 06:32:51;;;;;;;;;;;;;;;17.40;69.85;97829.69;5072478;28;20007;-58
2023/06/09 06:35:23;;;;;;;;;;;;;;;17.54;69.57;97823.72;5077511;28;19927;-58
2023/06/09 06:37:51;;;;;;;;;;;;;;;17.70;67.54;97831.91;5069034;28;20393;-58
2023/06/09 06:40:18;;;;;;;;;;;;;;;17.60;64.91;97821.50;5069341;28;19924;-59
2023/06/09 06:42:46;;;;;;;;;;;;;;;17.55;64.88;97825.31;5058148;28;19926;-57
2023/06/09 06:45:23;;;;;;;;;;;;;;;17.55;66.08;97822.56;5047082;28;19975;-60
2023/06/09 06:47:53;;;;;;;;;;;;;;;17.71;68.10;97828.00;5060026;28;19924;-57
2023/06/09 06:50:21;;;;;;;;;;;;;;;17.75;66.80;97834.41;5067143;28;19920;-58
2023/06/09 06:52:51;;;;;;;;;;;;;;;17.85;67.27;97833.06;5063935;28;19924;-61
2023/06/09 06:55:19;;;;;;;;;;;;;;;17.91;67.09;97828.84;5065851;28;20022;-58
2023/06/09 06:57:46;;;;;;;;;;;;;;;18.08;65.71;97839.41;5055612;28;19921;-59
2023/06/09 07:00:15;;;;;;;;;;;;;;;18.20;65.86;97832.97;5055741;28;19990;-59
2023/06/09 07:02:44;;;;;;;;;;;;;;;18.37;64.38;97837.22;5074855;28;19940;-58
2023/06/09 07:05:15;;;;;;;;;;;;;;;18.44;64.32;97832.66;5060919;28;19921;-60
2023/06/09 07:07:45;;;;;;;;;;;;;;;18.64;63.94;97830.63;5083077;28;19925;-59
2023/06/09 07:10:14;;;;;;;;;;;;;;;18.58;63.26;97834.84;5100551;28;19920;-58
2023/06/09 07:12:43;;;;;;;;;;;;;;;18.69;62.48;97830.34;5068639;28;20289;-60
2023/06/09 07:15:11;;;;;;;;;;;;;;;18.90;62.10;97840.16;5060417;28;20258;-59
2023/06/09 07:17:39;;;;;;;;;;;;;;;18.87;60.34;97838.94;5065290;28;19925;-58
2023/06/09 07:20:07;;;;;;;;;;;;;;;19.02;59.17;97835.25;5060774;28;19935;-58
2023/06/09 07:22:38;;;;;;;;;;;;;;;19.02;59.70;97829.75;5071308;28;19927;-62
2023/06/09 07:25:07;;;;;;;;;;;;;;;19.21;60.86;97826.09;5068632;28;20019;-59
2023/06/09 07:27:34;;;;;;;;;;;;;;;19.34;58.44;97830.25;5068545;28;19928;-58
2023/06/09 07:30:02;;;;;;;;;;;;;;;19.47;61.07;97827.28;5068935;28;19946;-66
2023/06/09 07:32:30;;;;;;;;;;;;;;;19.50;59.38;97824.56;5088247;28;19965;-58
2023/06/09 07:34:59;;;;;;;;;;;;;;;19.47;60.85;97830.03;5087813;28;19921;-58
2023/06/09 07:37:27;;;;;;;;;;;;;;;19.57;60.01;97832.13;5088598;28;19920;-58
2023/06/09 07:39:57;;;;;;;;;;;;;;;19.61;59.53;97830.25;5088488;28;19970;-60
2023/06/09 07:42:40;;;;;;;;;;;;;;;19.85;59.39;97827.03;5089517;28;19923;-59
2023/06/09 07:45:11;;;;;;;;;;;;;;;20.03;59.97;97832.00;5087196;28;19920;-58
2023/06/09 07:47:39;;;;;;;;;;;;;;;19.93;58.97;97827.13;5068437;28;19928;-58
2023/06/09 07:50:08;;;;;;;;;;;;;;;20.15;60.65;97831.75;5070890;28;19920;-62
2023/06/09 07:52:37;;;;;;;;;;;;;;;20.25;61.19;97828.31;5064341;28;19939;-58
2023/06/09 07:55:07;;;;;;;;;;;;;;;20.22;59.16;97825.50;5064606;28;19928;-58
2023/06/09 07:57:41;;;;;;;;;;;;;;;20.35;58.56;97827.63;5054055;28;19939;-58
2023/06/09 08:00:09;;;;;;;;;;;;;;;20.51;60.60;97821.13;5082250;28;19927;-58
2023/06/09 08:02:42;;;;;;;;;;;;;;;20.51;59.03;97821.91;5066298;28;19925;-59
2023/06/09 08:05:16;;;;;;;;;;;;;;;20.58;56.35;97819.22;5088526;28;19920;-58
2023/06/09 08:07:44;;;;;;;;;;;;;;;20.67;55.25;97818.91;5067233;28;19927;-58
2023/06/09 08:10:13;;;;;;;;;;;;;;;20.63;56.50;97818.88;5064217;28;19990;-60
2023/06/09 08:12:41;;;;;;;;;;;;;;;20.65;56.23;97818.50;5082982;28;20034;-59
2023/06/09 08:15:10;;;;;;;;;;;;;;;20.72;57.97;97810.28;5054327;28;20274;-59
2023/06/09 08:17:37;;;;;;;;;;;;;;;20.63;57.55;97810.59;5070299;28;20335;-59
2023/06/09 08:20:06;;;;;;;;;;;;;;;20.81;56.01;97813.50;5081666;28;20273;-58
2023/06/09 08:22:34;;;;;;;;;;;;;;;20.88;58.22;97810.81;5067853;28;19947;-58
2023/06/09 08:25:03;;;;;;;;;;;;;;;20.99;56.70;97813.69;5070820;28;20468;-59
2023/06/09 08:27:33;;;;;;;;;;;;;;;21.04;56.11;97807.81;5100896;28;20049;-59
2023/06/09 08:30:00;;;;;;;;;;;;;;;21.17;58.12;97811.03;5063390;28;19932;-58
2023/06/09 08:32:28;;;;;;;;;;;;;;;21.15;56.43;97803.16;5062418;28;19921;-58
2023/06/09 08:35:03;;;;;;;;;;;;;;;21.23;56.25;97806.75;5102085;28;19931;-58
2023/06/09 08:37:32;;;;;;;;;;;;;;;21.36;54.71;97802.53;5072114;28;19921;-58
2023/06/09 08:40:02;;;;;;;;;;;;;;;21.49;57.16;97807.72;5070169;28;19924;-60
2023/06/09 08:42:30;;;;;;;;;;;;;;;21.50;56.35;97801.81;5090363;28;19943;-58
2023/06/09 08:45:01;;;;;;;;;;;;;;;21.52;55.73;97804.19;5071092;28;19920;-58
2023/06/09 08:47:32;;;;;;;;;;;;;;;21.64;55.26;97798.34;5089436;28;19965;-56
2023/06/09 08:50:02;;;;;;;;;;;;;;;21.65;52.75;97797.94;5085463;28;19920;-56
2023/06/09 08:52:31;;;;;;;;;;;;;;;21.84;51.18;97788.56;5075711;28;19920;-57
2023/06/09 08:54:59;;;;;;;;;;;;;;;21.77;52.29;97787.72;5069579;28;19924;-57
2023/06/09 08:57:27;;;;;;;;;;;;;;;21.75;53.35;97790.88;5089675;28;19924;-57
2023/06/09 08:59:55;;;;;;;;;;;;;;;21.78;53.44;97795.63;5085740;28;19920;-59
2023/06/09 09:02:25;;;;;;;;;;;;;;;21.88;54.15;97788.56;5069976;28;19928;-59
2023/06/09 09:04:55;;;;;;;;;;;;;;;21.94;53.14;97784.22;5064190;28;19959;-68
2023/06/09 09:07:23;;;;;;;;;;;;;;;21.94;50.86;97790.59;5058809;28;19924;-59
2023/06/09 09:09:51;;;;;;;;;;;;;;;22.14;51.30;97787.50;5071157;28;19965;-59
2023/06/09 09:12:19;;;;;;;;;;;;;;;22.21;50.20;97784.75;5073963;28;19920;-59
2023/06/09 09:14:46;;;;;;;;;;;;;;;22.32;50.24;97793.06;5080120;28;19920;-59
2023/06/09 09:17:15;;;;;;;;;;;;;;;22.24;50.33;97789.50;5065366;28;19925;-58
2023/06/09 09:19:45;;;;;;;;;;;;;;;22.34;51.74;97791.50;5069154;28;19925;-60
2023/06/09 09:22:13;;;;;;;;;;;;;;;22.24;50.57;97789.50;5073181;28;20585;-56
2023/06/09 09:24:44;;;;;;;;;;;;;;;22.30;50.46;97787.94;5067663;28;20627;-57
2023/06/09 09:27:15;;;;;;;;;;;;;;;22.33;50.48;97787.16;5089999;28;19924;-58
2023/06/09 09:29:43;;;;;;;;;;;;;;;22.35;50.44;97784.78;5078198;28;20361;-57
2023/06/09 09:32:11;;;;;;;;;;;;;;;22.38;48.58;97781.25;5072518;28;20415;-58
2023/06/09 09:34:40;;;;;;;;;;;;;;;22.35;50.96;97781.22;5070855;28;19928;-58
2023/06/09 09:37:12;;;;;;;;;;;;;;;22.45;50.36;97778.47;5060616;28;19964;-58
2023/06/09 09:39:47;;;;;;;;;;;;;;;22.44;50.17;97774.13;5060113;28;19921;-58
2023/06/09 09:42:15;;;;;;;;;;;;;;;22.43;50.94;97764.25;5076323;28;19931;-57
2023/06/09 09:44:46;;;;;;;;;;;;;;;22.46;51.21;97762.66;5063811;28;19966;-58
2023/06/09 09:47:15;;;;;;;;;;;;;;;22.43;47.52;97758.72;5082240;28;20284;-60
2023/06/09 09:49:51;;;;;;;;;;;;;;;22.63;46.86;97747.25;5092901;28;20010;-58
2023/06/09 09:52:27;;;;;;;;;;;;;;;22.72;49.92;97753.97;5084724;28;19928;-57
2023/06/09 09:54:56;;;;;;;;;;;;;;;22.95;47.70;97753.59;5096919;28;19923;-65
2023/06/09 09:57:24;;;;;;;;;;;;;;;23.20;44.77;97742.50;5089371;28;19940;-57
2023/06/09 09:59:52;;;;;;;;;;;;;;;23.22;45.53;97744.84;5089266;28;20019;-61
2023/06/09 10:02:22;;;;;;;;;;;;;;;23.51;43.58;97746.38;5063692;28;19960;-57
2023/06/09 10:04:50;;;;;;;;;;;;;;;23.37;44.47;97746.41;5068179;28;19920;-60
2023/06/09 10:07:19;;;;;;;;;;;;;;;23.37;43.89;97740.88;5064302;28;19963;-56
2023/06/09 10:09:48;;;;;;;;;;;;;;;23.05;47.58;97748.44;5071719;28;19985;-58
2023/06/09 10:12:16;;;;;;;;;;;;;;;22.72;48.30;97739.34;5065363;28;20282;-57
2023/06/09 10:14:44;;;;;;;;;;;;;;;22.56;49.08;97750.03;5066954;28;19939;-57
2023/06/09 10:17:12;;;;;;;;;;;;;;;22.47;49.34;97748.41;5068588;28;19971;-57
2023/06/09 10:19:39;;;;;;;;;;;;;;;22.51;48.69;97747.66;5088657;28;19920;-57
2023/06/09 10:22:07;;;;;;;;;;;;;;;22.40;49.79;97740.13;5085268;28;20010;-57
2023/06/09 10:24:35;;;;;;;;;;;;;;;22.33;50.94;97739.31;5090742;28;19928;-58
2023/06/09 10:27:05;;;;;;;;;;;;;;;22.23;50.04;97738.13;5084679;28;19924;-57
2023/06/09 10:29:33;;;;;;;;;;;;;;;22.22;49.99;97736.53;5078167;28;19919;-57
2023/06/09 10:32:01;;;;;;;;;;;;;;;22.27;48.61;97733.38;5083365;28;19977;-56
2023/06/09 10:34:32;;;;;;;;;;;;;;;22.27;48.24;97735.38;5085322;28;19927;-57
2023/06/09 10:37:00;;;;;;;;;;;;;;;22.49;48.67;97729.47;5085985;28;19920;-57
2023/06/09 10:39:30;;;;;;;;;;;;;;;22.64;48.18;97721.16;5096878;28;19919;-57
2023/06/09 10:42:00;;;;;;;;;;;;;;;22.84;46.69;97722.31;5083089;28;21216;-57
2023/06/09 10:44:33;;;;;;;;;;;;;;;23.17;45.29;97721.13;5092763;28;20483;-57
2023/06/09 10:47:01;;;;;;;;;;;;;;;23.63;44.02;97714.66;5096279;28;19926;-57
2023/06/09 10:49:42;;;;;;;;;;;;;;;23.60;43.76;97711.91;5088452;28;19927;-61
2023/06/09 10:52:28;;;;;;;;;;;;;;;23.43;45.14;97714.31;5102200;28;20485;-56
2023/06/09 10:55:09;;;;;;;;;;;;;;;23.59;45.19;97713.06;5083705;28;19927;-60
2023/06/09 10:57:38;;;;;;;;;;;;;;;23.41;46.08;97722.25;5089154;28;19950;-57
2023/06/09 11:00:16;;;;;;;;;;;;;;;23.45;45.98;97717.47;5068939;28;19970;-56
2023/06/09 11:02:50;;;;;;;;;;;;;;;23.41;46.76;97711.16;5081887;28;19920;-57
2023/06/09 11:05:19;;;;;;;;;;;;;;;23.33;46.72;97706.84;5066695;28;19920;-56
2023/06/09 11:07:48;;;;;;;;;;;;;;;22.91;48.04;97700.19;5086925;28;19930;-57
2023/06/09 11:10:35;;;;;;;;;;;;;;;22.88;48.48;97702.97;5092064;28;20410;-56
2023/06/09 11:13:04;;;;;;;;;;;;;;;23.05;47.08;97699.38;5075771;28;20408;-57
2023/06/09 11:15:53;;;;;;;;;;;;;;;23.21;46.04;97696.94;5082311;28;19920;-58
2023/06/09 11:18:24;;;;;;;;;;;;;;;23.11;45.79;97691.44;5096182;28;19920;-57
2023/06/09 11:21:09;;;;;;;;;;;;;;;22.99;47.14;97685.13;5081330;28;20302;-61
2023/06/09 11:24:01;;;;;;;;;;;;;;;22.95;47.20;97689.88;5075708;28;20342;-57
2023/06/09 11:26:30;;;;;;;;;;;;;;;22.89;45.82;97690.69;5080720;28;19924;-57
2023/06/09 11:28:59;;;;;;;;;;;;;;;22.99;46.43;97685.13;5093653;28;19919;-57
2023/06/09 11:31:27;;;;;;;;;;;;;;;22.97;48.10;97683.97;5082033;28;20331;-57
2023/06/09 11:33:57;;;;;;;;;;;;;;;22.95;46.56;97683.56;5088997;28;19924;-59
2023/06/09 11:36:27;;;;;;;;;;;;;;;22.98;47.65;97680.78;5095303;28;19925;-56
2023/06/09 11:38:59;;;;;;;;;;;;;;;23.07;47.67;97672.06;5084443;28;20010;-62
2023/06/09 11:41:27;;;;;;;;;;;;;;;23.18;47.28;97672.03;5089103;28;19928;-57
2023/06/09 11:43:55;;;;;;;;;;;;;;;23.43;42.94;97672.72;5086016;28;19921;-57
2023/06/09 11:46:25;;;;;;;;;;;;;;;23.72;40.30;97667.88;5100075;28;19920;-57
2023/06/09 11:48:58;;;;;;;;;;;;;;;24.04;40.66;97675.22;5084468;28;19926;-57
2023/06/09 11:51:27;;;;;;;;;;;;;;;24.48;36.40;97670.97;5101678;28;19928;-59
2023/06/09 11:53:54;;;;;;;;;;;;;;;24.53;35.11;97679.63;5079669;28;19924;-57
2023/06/09 11:56:22;;;;;;;;;;;;;;;24.50;36.22;97674.09;5085449;28;19956;-57
2023/06/09 11:58:53;;;;;;;;;;;;;;;24.17;37.68;97675.53;5093305;28;19926;-57
2023/06/09 12:01:23;;;;;;;;;;;;;;;24.08;37.51;97669.66;5065223;28;19951;-57
2023/06/09 12:03:50;;;;;;;;;;;;;;;24.14;36.94;97663.25;5079449;28;19920;-58
2023/06/09 12:06:20;;;;;;;;;;;;;;;23.98;37.95;97661.00;5087866;28;19924;-57
2023/06/09 12:08:47;;;;;;;;;;;;;;;23.70;38.38;97659.19;5098432;28;19924;-57
2023/06/09 12:11:16;;;;;;;;;;;;;;;23.35;41.35;97662.06;5097848;28;20437;-57
2023/06/09 12:13:47;;;;;;;;;;;;;;;23.44;38.54;97652.13;5102917;28;19920;-56
2023/06/09 12:16:15;;;;;;;;;;;;;;;23.58;38.01;97647.72;5085548;28;20014;-57
2023/06/09 12:18:43;;;;;;;;;;;;;;;23.54;38.07;97644.94;5095032;28;19923;-57
2023/06/09 12:21:12;;;;;;;;;;;;;;;23.46;40.70;97643.41;5099481;28;20331;-58
2023/06/09 12:23:41;;;;;;;;;;;;;;;23.46;41.43;97652.53;5093939;28;19924;-57
2023/06/09 12:26:09;;;;;;;;;;;;;;;23.50;41.78;97646.97;5093565;28;19935;-56
2023/06/09 12:28:38;;;;;;;;;;;;;;;23.61;42.11;97644.16;5083106;28;19956;-57
2023/06/09 12:31:10;;;;;;;;;;;;;;;23.78;41.49;97646.84;5091251;28;19952;-57
2023/06/09 12:33:38;;;;;;;;;;;;;;;23.70;41.00;97644.50;5093206;28;20036;-58
2023/06/09 12:36:06;;;;;;;;;;;;;;;23.34;40.75;97650.19;5098371;28;19931;-56
2023/06/09 12:38:38;;;;;;;;;;;;;;;23.30;39.28;97648.63;5083986;28;19921;-58
2023/06/09 12:41:08;;;;;;;;;;;;;;;23.16;40.11;97646.69;5080058;28;20277;-60
2023/06/09 12:43:45;;;;;;;;;;;;;;;23.06;39.46;97650.28;5074853;28;20813;-59
2023/06/09 12:46:13;;;;;;;;;;;;;;;22.94;40.09;97654.28;5068276;28;20577;-57
2023/06/09 12:49:02;;;;;;;;;;;;;;;22.89;40.74;97652.69;5081471;28;20598;-58
2023/06/09 12:51:30;;;;;;;;;;;;;;;22.80;40.49;97655.09;5064973;28;19920;-57
2023/06/09 12:53:58;;;;;;;;;;;;;;;22.96;38.68;97663.78;5081672;28;19932;-60
2023/06/09 12:56:27;;;;;;;;;;;;;;;22.92;38.81;97667.75;5083426;28;19944;-57
2023/06/09 12:58:55;;;;;;;;;;;;;;;23.08;38.73;97665.31;5097064;27;19943;-58
2023/06/09 13:01:23;;;;;;;;;;;;;;;23.26;37.96;97670.81;5073428;28;20449;-58